Time;durP1;ratioP1;P1;durP2;ratioP2;P2;SDS_P1;SDS_P2;PMS_P1;PMS_P2;Temp;Humidity;BMP_temperature;BMP_pressure;BME280_temperature;BME280_humidity;BME280_pressure;Samples;Min_cycle;Max_cycle;Signal;HPM_P1;HPM_P2
2023/08/18 00:00:32;;;;;;;9.93;6.00;;;26.30;69.70;;;;;;5056088;28;20037;-80
2023/08/18 00:02:58;;;;;;;5.37;4.27;;;26.30;69.60;;;;;;5054337;28;20452;-80
2023/08/18 00:05:24;;;;;;;8.40;4.33;;;26.30;69.40;;;;;;5055840;28;20033;-80
2023/08/18 00:07:49;;;;;;;7.20;4.30;;;26.30;69.30;;;;;;5055745;28;20458;-80
2023/08/18 00:10:16;;;;;;;5.03;4.57;;;26.30;69.00;;;;;;5055019;28;20029;-80
2023/08/18 00:12:41;;;;;;;7.43;5.25;;;26.30;69.40;;;;;;5054248;28;20224;-80
2023/08/18 00:15:07;;;;;;;5.27;4.77;;;26.30;69.30;;;;;;5055325;28;20021;-80
2023/08/18 00:17:33;;;;;;;4.80;4.40;;;26.30;69.20;;;;;;5055235;28;20529;-80
2023/08/18 00:19:59;;;;;;;7.77;4.90;;;26.30;69.20;;;;;;5054412;28;20047;-80
2023/08/18 00:22:25;;;;;;;6.20;5.10;;;26.20;69.30;;;;;;5054948;28;20409;-80
2023/08/18 00:24:51;;;;;;;9.43;5.13;;;26.20;69.30;;;;;;5054729;28;20043;-80
2023/08/18 00:27:17;;;;;;;8.87;4.77;;;26.20;69.40;;;;;;5056019;28;20399;-80
2023/08/18 00:29:43;;;;;;;5.73;4.70;;;26.10;69.60;;;;;;5054518;28;20535;-80
2023/08/18 00:32:09;;;;;;;10.00;4.87;;;26.10;69.80;;;;;;5055345;28;20075;-80
2023/08/18 00:34:37;;;;;;;6.80;5.57;;;26.00;70.00;;;;;;5054245;28;20021;-80
2023/08/18 00:37:03;;;;;;;6.60;4.63;;;26.10;70.10;;;;;;5053631;28;20051;-80
2023/08/18 00:39:29;;;;;;;7.43;5.27;;;26.00;70.40;;;;;;5054297;28;20029;-80
2023/08/18 00:41:55;;;;;;;6.25;5.13;;;26.00;70.60;;;;;;5037727;28;20044;-80
2023/08/18 00:44:21;;;;;;;9.77;6.13;;;26.00;70.60;;;;;;5056547;28;20040;-80
2023/08/18 00:46:47;;;;;;;7.40;4.87;;;25.90;70.50;;;;;;5054162;28;20044;-80
2023/08/18 00:49:16;;;;;;;6.57;5.18;;;25.90;70.90;;;;;;5054424;28;20458;-80
2023/08/18 00:51:43;;;;;;;8.73;5.78;;;25.90;70.90;;;;;;5053549;28;20078;-80
2023/08/18 00:54:10;;;;;;;6.45;5.35;;;25.80;71.40;;;;;;5053496;28;20119;-80
2023/08/18 00:56:36;;;;;;;7.10;5.45;;;25.70;71.40;;;;;;5049667;28;20032;-80
2023/08/18 00:59:03;;;;;;;6.05;4.55;;;25.80;71.60;;;;;;5053055;28;20048;-80
2023/08/18 01:01:28;;;;;;;6.45;5.72;;;25.70;71.40;;;;;;5053339;28;20033;-80
2023/08/18 01:03:55;;;;;;;6.63;4.63;;;25.70;71.60;;;;;;5054369;28;20029;-80
2023/08/18 01:06:21;;;;;;;7.57;4.47;;;25.70;71.50;;;;;;5052595;28;20403;-80
2023/08/18 01:08:49;;;;;;;5.17;4.33;;;25.70;71.30;;;;;;5053305;28;20029;-80
2023/08/18 01:11:33;;;;;;;7.43;4.38;;;25.70;71.10;;;;;;5053738;28;20021;-80
2023/08/18 01:14:27;;;;;;;6.70;3.75;;;25.60;70.10;;;;;;5053166;28;20519;-80
2023/08/18 01:17:24;;;;;;;10.05;4.15;;;25.60;70.20;;;;;;5051141;28;20029;-80
2023/08/18 01:19:52;;;;;;;4.38;3.97;;;25.50;70.50;;;;;;5045661;28;20025;-80
2023/08/18 01:22:18;;;;;;;14.63;4.32;;;25.50;71.60;;;;;;5054551;28;20395;-80
2023/08/18 01:24:44;;;;;;;;;;;25.50;71.60;;;;;;5053587;28;20110;-80
2023/08/18 01:27:10;;;;;;;5.25;4.07;;;25.40;69.10;;;;;;5052235;28;20398;-80
2023/08/18 01:29:36;;;;;;;6.07;4.67;;;25.40;71.50;;;;;;5036416;28;20437;-80
2023/08/18 01:32:05;;;;;;;3.90;3.50;;;25.40;71.60;;;;;;5052774;28;20045;-80
2023/08/18 01:34:33;;;;;;;5.88;4.00;;;25.30;71.40;;;;;;5052427;28;20102;-80
2023/08/18 01:37:01;;;;;;;4.72;3.88;;;25.30;71.90;;;;;;5054974;28;20029;-81
2023/08/18 01:39:29;;;;;;;7.05;3.35;;;25.30;72.00;;;;;;5036184;28;20032;-80
2023/08/18 01:41:55;;;;;;;10.77;3.95;;;25.30;72.10;;;;;;5036275;28;20063;-80
2023/08/18 01:44:21;;;;;;;4.13;3.70;;;25.30;72.10;;;;;;5053376;28;20056;-80
2023/08/18 01:46:47;;;;;;;6.40;4.10;;;25.20;71.80;;;;;;5051597;28;20044;-80
2023/08/18 01:49:13;;;;;;;8.67;4.17;;;25.20;72.50;;;;;;5052705;28;20036;-80
2023/08/18 01:51:40;;;;;;;6.70;4.40;;;25.10;72.30;;;;;;5052569;28;20025;-80
2023/08/18 01:54:06;;;;;;;5.30;3.35;;;25.10;72.90;;;;;;5052750;28;20462;-80
2023/08/18 01:56:32;;;;;;;7.53;4.33;;;25.10;72.90;;;;;;5052592;28;20029;-80
2023/08/18 01:58:59;;;;;;;5.78;3.72;;;25.10;72.70;;;;;;5052353;28;20276;-80
2023/08/18 02:01:25;;;;;;;4.38;3.65;;;25.10;72.80;;;;;;5051942;28;20024;-80
2023/08/18 02:03:53;;;;;;;6.93;3.38;;;25.10;72.50;;;;;;5052928;28;20029;-80
2023/08/18 02:06:18;;;;;;;4.63;3.65;;;25.10;72.70;;;;;;5035314;28;20036;-80
2023/08/18 02:08:44;;;;;;;8.53;4.30;;;25.10;72.70;;;;;;5053295;28;20036;-80
2023/08/18 02:11:11;;;;;;;11.75;3.72;;;25.00;73.10;;;;;;5052869;28;20021;-80
2023/08/18 02:13:37;;;;;;;6.77;3.80;;;25.00;73.50;;;;;;5052815;28;20021;-80
2023/08/18 02:16:03;;;;;;;4.20;3.80;;;24.90;73.70;;;;;;5052941;28;20032;-80
2023/08/18 02:18:31;;;;;;;7.95;4.00;;;24.90;73.80;;;;;;5052910;28;20037;-80
2023/08/18 02:20:59;;;;;;;6.03;3.90;;;24.90;74.00;;;;;;5052146;28;20467;-80
2023/08/18 02:23:24;;;;;;;7.20;4.38;;;24.90;73.50;;;;;;5054236;28;20056;-80
2023/08/18 02:25:50;;;;;;;4.93;4.20;;;24.90;73.70;;;;;;5051874;28;20480;-80
2023/08/18 02:28:19;;;;;;;6.75;4.00;;;24.90;73.60;;;;;;5051957;28;20453;-80
2023/08/18 02:30:45;;;;;;;7.28;4.22;;;24.80;74.10;;;;;;5052122;28;20059;-80
2023/08/18 02:33:11;;;;;;;9.07;4.57;;;24.80;74.50;;;;;;5053720;28;20025;-79
2023/08/18 02:35:37;;;;;;;6.00;3.90;;;24.70;74.80;;;;;;5053866;28;20484;-80
2023/08/18 02:38:03;;;;;;;4.35;3.80;;;24.70;75.00;;;;;;5051878;28;20029;-80
2023/08/18 02:40:29;;;;;;;8.27;4.53;;;24.70;75.20;;;;;;5052083;28;20090;-80
2023/08/18 02:42:55;;;;;;;4.97;4.47;;;24.70;75.30;;;;;;5035336;28;20083;-80
2023/08/18 02:45:21;;;;;;;4.23;3.83;;;24.70;75.50;;;;;;5052111;28;20415;-80
2023/08/18 02:47:46;;;;;;;4.37;3.97;;;24.60;75.00;;;;;;5053685;28;20068;-80
2023/08/18 02:50:14;;;;;;;5.05;4.40;;;24.60;75.20;;;;;;5052362;28;20045;-80
2023/08/18 02:52:39;;;;;;;6.00;4.37;;;24.60;75.50;;;;;;5051732;28;20051;-80
2023/08/18 02:55:06;;;;;;;4.53;4.03;;;24.50;75.50;;;;;;5050879;28;20033;-80
2023/08/18 02:57:31;;;;;;;9.55;4.82;;;24.50;75.60;;;;;;5052986;28;20029;-80
2023/08/18 02:59:57;;;;;;;7.70;4.10;;;24.50;75.60;;;;;;5051348;28;20074;-80
2023/08/18 03:02:23;;;;;;;11.07;5.43;;;24.40;75.70;;;;;;5053440;28;20039;-80
2023/08/18 03:04:51;;;;;;;11.60;5.38;;;24.30;75.80;;;;;;5035199;28;20308;-80
2023/08/18 03:07:16;;;;;;;5.23;4.77;;;24.30;76.00;;;;;;5050620;28;20086;-80
2023/08/18 03:09:43;;;;;;;8.30;5.23;;;24.30;76.20;;;;;;5052304;28;20503;-80
2023/08/18 03:12:09;;;;;;;6.50;5.20;;;24.30;76.30;;;;;;5054502;28;20495;-80
2023/08/18 03:14:35;;;;;;;5.63;4.73;;;24.20;76.80;;;;;;5031966;28;20052;-80
2023/08/18 03:17:00;;;;;;;6.70;5.33;;;24.10;77.50;;;;;;5048904;28;20119;-80
2023/08/18 03:19:26;;;;;;;6.93;4.70;;;24.00;77.60;;;;;;5052029;28;20367;-80
2023/08/18 03:21:52;;;;;;;10.23;5.00;;;24.00;77.50;;;;;;5049968;28;20037;-80
2023/08/18 03:24:18;;;;;;;6.60;4.80;;;24.00;77.70;;;;;;5054128;28;20282;-80
2023/08/18 03:26:44;;;;;;;6.77;5.23;;;24.00;77.80;;;;;;5053000;28;20387;-80
2023/08/18 03:29:10;;;;;;;7.83;4.70;;;24.10;78.00;;;;;;5051601;28;20032;-80
2023/08/18 03:31:36;;;;;;;7.67;4.97;;;24.00;77.80;;;;;;5035072;28;20271;-80
2023/08/18 03:34:02;;;;;;;8.13;5.00;;;24.00;77.70;;;;;;5034882;28;20086;-80
2023/08/18 03:36:28;;;;;;;;;;;24.00;77.60;;;;;;5035250;28;20040;-81
2023/08/18 03:38:54;;;;;;;8.75;5.45;;;24.00;75.10;;;;;;5051669;28;19912;-80
2023/08/18 03:41:20;;;;;;;6.00;5.07;;;23.90;77.40;;;;;;5054934;28;20056;-81
2023/08/18 03:43:46;;;;;;;6.20;5.43;;;23.90;77.90;;;;;;5056806;28;20032;-80
2023/08/18 03:46:22;;;;;;;7.37;5.70;;;23.90;77.90;;;;;;5055439;28;20025;-80
2023/08/18 03:48:50;;;;;;;8.32;5.55;;;23.80;77.40;;;;;;5053710;28;20033;-80
2023/08/18 03:51:17;;;;;;;6.10;5.50;;;23.80;78.30;;;;;;5053852;28;20021;-80
2023/08/18 03:53:43;;;;;;;12.97;6.30;;;23.80;78.60;;;;;;5053848;28;20059;-80
2023/08/18 03:56:10;;;;;;;7.32;6.60;;;23.70;78.70;;;;;;5053978;28;20037;-80
2023/08/18 03:58:35;;;;;;;7.03;5.30;;;23.70;79.10;;;;;;5037432;28;20115;-80
2023/08/18 04:01:07;;;;;;;8.50;6.17;;;23.60;79.20;;;;;;5049711;28;20103;-80
2023/08/18 04:03:38;;;;;;;13.55;6.00;;;23.70;78.90;;;;;;5043455;28;20026;-80
2023/08/18 04:06:05;;;;;;;10.23;5.88;;;23.60;78.70;;;;;;5034299;28;20029;-80
2023/08/18 04:08:33;;;;;;;8.45;6.32;;;23.60;79.30;;;;;;5033346;28;20076;-80
2023/08/18 04:10:59;;;;;;;8.27;6.25;;;23.50;79.80;;;;;;5033905;28;20025;-80
2023/08/18 04:13:25;;;;;;;8.63;6.07;;;23.30;80.80;;;;;;5033534;28;20080;-80
2023/08/18 04:15:51;;;;;;;8.50;7.45;;;23.40;80.50;;;;;;5033704;28;20404;-80
2023/08/18 04:18:18;;;;;;;8.43;7.30;;;23.40;80.20;;;;;;5033762;28;20032;-80
2023/08/18 04:20:43;;;;;;;7.82;6.97;;;23.40;80.30;;;;;;5034916;28;20033;-80
2023/08/18 04:23:10;;;;;;;9.23;6.70;;;23.30;80.50;;;;;;5033356;28;20052;-80
2023/08/18 04:25:36;;;;;;;8.23;7.32;;;23.30;80.50;;;;;;5034517;28;20071;-80
2023/08/18 04:28:02;;;;;;;8.00;6.63;;;23.30;80.70;;;;;;5032338;28;20404;-80
2023/08/18 04:30:30;;;;;;;8.40;6.57;;;23.30;80.80;;;;;;5032821;28;20044;-80
2023/08/18 04:32:55;;;;;;;9.03;6.73;;;23.30;80.40;;;;;;5033990;28;20026;-80
2023/08/18 04:35:21;;;;;;;9.07;6.27;;;23.30;80.20;;;;;;5021296;28;20467;-82
2023/08/18 04:37:48;;;;;;;7.47;6.43;;;23.30;80.20;;;;;;5033118;28;20037;-83
2023/08/18 04:40:14;;;;;;;8.38;6.32;;;23.30;80.20;;;;;;5032898;28;20029;-80
2023/08/18 04:42:40;;;;;;;8.50;7.57;;;23.30;80.40;;;;;;5032740;28;20075;-80
2023/08/18 04:45:08;;;;;;;8.65;6.38;;;23.30;80.20;;;;;;5032653;28;20029;-82
2023/08/18 04:47:33;;;;;;;7.68;6.93;;;23.40;80.40;;;;;;5032178;28;20068;-80
2023/08/18 04:49:59;;;;;;;8.90;7.13;;;23.40;80.10;;;;;;5016293;28;20072;-81
2023/08/18 04:52:25;;;;;;;7.57;6.50;;;23.40;80.00;;;;;;5032309;28;20021;-81
2023/08/18 04:54:51;;;;;;;14.53;6.97;;;23.50;79.90;;;;;;5032574;28;20033;-81
2023/08/18 04:57:17;;;;;;;8.35;7.53;;;23.50;80.00;;;;;;5033653;28;20033;-81
2023/08/18 04:59:43;;;;;;;9.13;6.30;;;23.40;80.10;;;;;;5032350;28;20495;-81
2023/08/18 05:02:10;;;;;;;8.23;7.38;;;23.40;80.30;;;;;;5032320;28;20083;-81
2023/08/18 05:04:35;;;;;;;8.03;7.20;;;23.30;80.40;;;;;;5047363;28;20025;-82
2023/08/18 05:07:02;;;;;;;9.63;7.40;;;23.30;80.70;;;;;;5051903;28;20068;-82
2023/08/18 05:09:30;;;;;;;8.52;7.72;;;23.20;81.30;;;;;;5052166;28;20124;-81
2023/08/18 05:11:56;;;;;;;9.10;7.57;;;23.10;82.00;;;;;;5053346;28;20057;-81
2023/08/18 05:14:22;;;;;;;14.00;7.83;;;22.90;83.00;;;;;;5053144;28;20545;-81
2023/08/18 05:16:48;;;;;;;7.82;6.90;;;22.80;83.50;;;;;;5051920;28;20548;-81
2023/08/18 05:19:14;;;;;;;12.47;7.20;;;22.90;83.10;;;;;;5053170;28;20116;-81
2023/08/18 05:21:40;;;;;;;13.00;7.05;;;22.80;83.00;;;;;;5053154;28;20025;-82
2023/08/18 05:24:06;;;;;;;12.67;7.23;;;22.90;82.70;;;;;;5051965;28;20163;-81
2023/08/18 05:26:32;;;;;;;17.73;6.90;;;23.00;82.30;;;;;;5051943;28;20044;-81
2023/08/18 05:28:57;;;;;;;7.67;6.90;;;23.00;82.00;;;;;;5055119;28;20415;-82
2023/08/18 05:31:23;;;;;;;10.20;7.57;;;23.20;81.80;;;;;;5052988;28;20128;-80
2023/08/18 05:33:49;;;;;;;9.87;7.20;;;23.30;81.40;;;;;;5051708;28;20025;-81
2023/08/18 05:36:16;;;;;;;11.97;9.27;;;23.30;81.20;;;;;;5053581;28;20071;-82
2023/08/18 05:38:42;;;;;;;10.02;7.55;;;23.40;81.10;;;;;;5059293;28;20553;-82
2023/08/18 05:41:13;;;;;;;17.50;8.90;;;23.50;81.10;;;;;;5057992;28;20025;-80
2023/08/18 05:43:39;;;;;;;9.70;8.60;;;23.60;80.40;;;;;;5062370;28;20025;-82
2023/08/18 05:46:06;;;;;;;15.02;8.27;;;23.60;80.70;;;;;;5056259;28;20373;-81
2023/08/18 05:48:32;;;;;;;17.77;9.38;;;23.60;80.30;;;;;;5057094;28;20040;-81
2023/08/18 05:51:02;;;;;;;15.15;9.18;;;23.70;80.20;;;;;;5054794;28;20051;-79
2023/08/18 05:53:31;;;;;;;10.90;9.00;;;23.80;79.90;;;;;;5059476;28;20131;-79
2023/08/18 05:55:57;;;;;;;11.93;8.38;;;23.90;79.40;;;;;;5057866;28;20056;-79
2023/08/18 05:58:23;;;;;;;14.95;8.70;;;23.80;79.80;;;;;;5055270;28;20491;-80
2023/08/18 06:00:52;;;;;;;11.43;8.30;;;23.90;79.90;;;;;;5052404;28;20043;-79
2023/08/18 06:03:21;;;;;;;9.15;7.40;;;23.90;79.50;;;;;;5053519;28;20027;-79
2023/08/18 06:05:47;;;;;;;14.35;8.18;;;24.00;79.10;;;;;;5053668;28;20033;-80
2023/08/18 06:08:13;;;;;;;8.98;8.02;;;24.10;78.60;;;;;;5052729;28;20067;-79
2023/08/18 06:10:39;;;;;;;12.33;7.90;;;24.10;77.80;;;;;;5056539;28;20025;-79
2023/08/18 06:13:05;;;;;;;11.85;8.50;;;24.20;77.50;;;;;;5057870;28;20021;-80
2023/08/18 06:15:31;;;;;;;24.63;8.57;;;24.20;77.70;;;;;;5057101;28;20512;-80
2023/08/18 06:17:57;;;;;;;12.53;7.70;;;24.20;77.60;;;;;;5060394;28;20028;-80
2023/08/18 06:20:23;;;;;;;10.07;6.80;;;24.30;77.40;;;;;;5062445;28;20033;-80
2023/08/18 06:22:48;;;;;;;8.77;7.87;;;24.20;77.20;;;;;;5061618;28;20025;-80
2023/08/18 06:25:14;;;;;;;8.93;7.30;;;24.20;77.40;;;;;;5060396;28;20044;-80
2023/08/18 06:27:40;;;;;;;11.00;7.83;;;24.20;77.40;;;;;;5055184;28;20028;-79
2023/08/18 06:30:06;;;;;;;12.97;8.10;;;24.30;77.70;;;;;;5056956;28;20025;-80
2023/08/18 06:32:33;;;;;;;9.95;8.23;;;24.30;77.40;;;;;;5056501;28;20116;-80
2023/08/18 06:34:59;;;;;;;9.23;7.47;;;24.40;76.90;;;;;;5058326;28;20227;-80
2023/08/18 06:37:25;;;;;;;14.07;7.83;;;24.40;76.70;;;;;;5053666;28;20028;-79
2023/08/18 06:39:51;;;;;;;15.52;8.55;;;24.40;77.40;;;;;;5054855;28;20025;-80
2023/08/18 06:42:17;;;;;;;9.07;7.97;;;24.40;77.10;;;;;;5056612;28;20453;-80
2023/08/18 06:44:43;;;;;;;11.10;7.17;;;24.50;77.30;;;;;;5059629;28;20021;-82
2023/08/18 06:47:09;;;;;;;8.60;7.00;;;24.50;76.90;;;;;;5059140;28;20033;-81
2023/08/18 06:49:34;;;;;;;12.23;8.40;;;24.60;75.90;;;;;;5062217;28;20420;-84
2023/08/18 06:52:00;;;;;;;13.77;8.07;;;24.60;75.90;;;;;;5042380;28;20029;-84
2023/08/18 06:54:26;;;;;;;14.93;8.00;;;24.70;75.70;;;;;;5060131;28;20396;-83
2023/08/18 06:56:52;;;;;;;9.60;7.70;;;24.70;76.20;;;;;;5059454;28;20120;-83
2023/08/18 06:59:18;;;;;;;8.40;7.53;;;24.80;75.80;;;;;;5060008;28;20033;-83
2023/08/18 07:01:43;;;;;;;13.63;8.83;;;24.90;76.80;;;;;;5058200;28;20043;-83
2023/08/18 07:04:10;;;;;;;9.27;7.23;;;24.90;76.10;;;;;;5051331;28;20116;-84
2023/08/18 07:06:36;;;;;;;8.48;7.20;;;24.90;75.00;;;;;;5050428;28;20511;-84
2023/08/18 07:09:03;;;;;;;7.53;6.72;;;25.00;74.20;;;;;;5050497;28;20029;-83
2023/08/18 07:11:29;;;;;;;6.93;6.30;;;25.00;74.20;;;;;;5050566;28;20021;-83
2023/08/18 07:13:55;;;;;;;14.13;7.23;;;25.10;74.30;;;;;;5051835;28;20135;-82
2023/08/18 07:16:21;;;;;;;7.97;7.10;;;25.10;74.10;;;;;;5056190;28;20427;-79
2023/08/18 07:18:47;;;;;;;8.13;6.67;;;25.10;73.40;;;;;;5056211;28;20077;-79
2023/08/18 07:21:12;;;;;;;7.60;6.80;;;25.10;73.10;;;;;;5054898;28;20031;-79
2023/08/18 07:23:38;;;;;;;9.97;8.57;;;25.20;72.90;;;;;;5054837;28;20064;-80
2023/08/18 07:26:04;;;;;;;14.70;8.07;;;25.20;73.20;;;;;;5055942;28;20055;-80
2023/08/18 07:28:31;;;;;;;12.50;8.63;;;25.30;73.90;;;;;;5055888;28;20059;-79
2023/08/18 07:31:00;;;;;;;;;;;25.30;73.10;;;;;;5055525;28;20025;-79
2023/08/18 07:33:26;;;;;;;11.05;7.95;;;25.30;73.10;;;;;;5056084;28;19915;-80
2023/08/18 07:35:52;;;;;;;11.80;7.30;;;25.30;73.60;;;;;;5055723;28;20033;-79
2023/08/18 07:38:18;;;;;;;12.93;8.13;;;25.30;73.00;;;;;;5055315;28;20060;-80
2023/08/18 07:40:44;;;;;;;10.70;7.23;;;25.40;73.10;;;;;;5055566;28;20158;-80
2023/08/18 07:43:10;;;;;;;14.50;8.27;;;25.40;72.90;;;;;;5054456;28;20059;-81
2023/08/18 07:45:36;;;;;;;8.15;7.38;;;25.50;72.10;;;;;;5055022;28;20119;-81
2023/08/18 07:48:02;;;;;;;11.00;8.20;;;25.50;71.80;;;;;;5053658;28;20387;-81
2023/08/18 07:50:28;;;;;;;12.90;7.60;;;25.60;72.00;;;;;;5053835;28;20369;-82
2023/08/18 07:52:54;;;;;;;15.97;7.13;;;25.60;71.80;;;;;;5037353;28;20052;-81
2023/08/18 07:55:21;;;;;;;12.80;7.20;;;25.60;72.10;;;;;;5053524;28;20102;-84
2023/08/18 07:57:47;;;;;;;9.82;7.35;;;25.70;72.80;;;;;;5053346;28;20029;-82
2023/08/18 08:00:17;;;;;;;9.73;7.20;;;25.80;73.70;;;;;;5054747;28;20112;-81
2023/08/18 08:02:47;;;;;;;8.35;7.00;;;25.90;71.40;;;;;;5054911;28;20099;-81
2023/08/18 08:05:17;;;;;;;11.43;7.55;;;25.90;70.10;;;;;;5053703;28;20495;-78
2023/08/18 08:07:43;;;;;;;11.38;7.85;;;25.90;71.10;;;;;;5055716;28;20116;-78
2023/08/18 08:10:09;;;;;;;12.82;7.82;;;26.00;71.30;;;;;;5059449;28;20021;-78
2023/08/18 08:12:38;;;;;;;13.68;9.05;;;26.10;71.10;;;;;;5055851;28;20553;-78
2023/08/18 08:15:05;;;;;;;9.65;7.38;;;26.10;71.00;;;;;;5056057;28;20021;-79
2023/08/18 08:17:32;;;;;;;15.82;8.63;;;26.20;72.00;;;;;;5055041;28;20029;-79
2023/08/18 08:20:00;;;;;;;13.18;8.15;;;26.30;71.70;;;;;;5055995;28;20102;-79
2023/08/18 08:22:26;;;;;;;16.48;9.52;;;26.40;70.60;;;;;;5057809;28;20029;-79
2023/08/18 08:24:54;;;;;;;15.43;9.63;;;26.40;70.80;;;;;;5054788;28;20037;-79
2023/08/18 08:27:21;;;;;;;12.73;8.95;;;26.40;70.20;;;;;;5055796;28;20035;-79
2023/08/18 08:29:47;;;;;;;11.65;8.27;;;26.50;70.00;;;;;;5054199;28;20067;-79
2023/08/18 08:32:13;;;;;;;16.10;9.80;;;26.50;69.80;;;;;;5055636;28;20072;-79
2023/08/18 08:34:42;;;;;;;17.60;9.17;;;26.60;69.60;;;;;;5055817;28;20285;-79
2023/08/18 08:37:08;;;;;;;14.35;9.05;;;26.60;70.00;;;;;;5055933;28;20036;-79
2023/08/18 08:39:34;;;;;;;16.17;8.77;;;26.70;69.80;;;;;;5054558;28;20435;-79
2023/08/18 08:41:59;;;;;;;14.80;9.73;;;26.70;69.80;;;;;;5056620;28;20063;-79
2023/08/18 08:44:25;;;;;;;20.70;9.47;;;26.80;69.10;;;;;;5056037;28;20521;-79
2023/08/18 08:46:52;;;;;;;14.07;9.73;;;26.80;69.00;;;;;;5056175;28;20035;-78
2023/08/18 08:49:21;;;;;;;13.77;9.02;;;26.90;69.00;;;;;;5055606;28;20032;-78
2023/08/18 08:51:50;;;;;;;11.82;10.00;;;26.90;68.70;;;;;;5053790;28;20036;-78
2023/08/18 08:54:20;;;;;;;20.75;11.07;;;27.00;68.90;;;;;;5054030;28;20025;-79
2023/08/18 08:56:49;;;;;;;13.80;9.65;;;27.00;68.80;;;;;;5037668;28;20079;-79
2023/08/18 08:59:15;;;;;;;10.15;8.30;;;27.20;67.20;;;;;;5054626;28;20446;-79
2023/08/18 09:01:41;;;;;;;19.25;8.95;;;27.20;66.20;;;;;;5054976;28;20292;-78
2023/08/18 09:04:08;;;;;;;13.33;8.57;;;27.20;68.30;;;;;;5054037;28;20032;-78
2023/08/18 09:06:34;;;;;;;13.32;8.57;;;27.30;65.40;;;;;;5055059;28;20025;-78
2023/08/18 09:09:00;;;;;;;13.57;9.10;;;27.30;66.10;;;;;;5056072;28;20024;-78
2023/08/18 09:11:40;;;;;;;12.68;8.90;;;27.40;65.90;;;;;;5053151;28;20270;-78
2023/08/18 09:14:06;;;;;;;12.88;9.00;;;27.50;65.30;;;;;;5053526;28;20032;-78
2023/08/18 09:16:32;;;;;;;14.07;10.30;;;27.60;66.40;;;;;;5054389;28;20021;-78
2023/08/18 09:18:57;;;;;;;10.67;9.07;;;27.60;65.70;;;;;;5054999;28;20339;-78
2023/08/18 09:21:23;;;;;;;12.80;8.60;;;27.60;65.90;;;;;;5054668;28;20033;-78
2023/08/18 09:23:57;;;;;;;14.10;9.30;;;27.70;65.80;;;;;;5053150;28;20025;-78
2023/08/18 09:26:32;;;;;;;11.23;8.50;;;27.70;65.70;;;;;;5053981;28;20029;-78
2023/08/18 09:28:58;;;;;;;10.32;8.68;;;27.80;65.30;;;;;;5052887;28;20295;-78
2023/08/18 09:31:23;;;;;;;14.07;8.90;;;27.90;65.70;;;;;;5053793;28;20025;-78
2023/08/18 09:33:52;;;;;;;13.70;8.63;;;27.90;66.30;;;;;;5052512;28;20119;-78
2023/08/18 09:36:19;;;;;;;10.20;7.40;;;28.10;66.80;;;;;;5052531;28;20044;-77
2023/08/18 09:38:45;;;;;;;11.30;7.18;;;28.20;65.90;;;;;;5053251;28;20457;-77
2023/08/18 09:41:12;;;;;;;16.38;9.15;;;28.30;64.60;;;;;;5035818;28;20480;-78
2023/08/18 09:43:39;;;;;;;9.45;6.40;;;28.40;65.20;;;;;;5052742;28;20040;-77
2023/08/18 09:46:06;;;;;;;10.45;6.68;;;28.50;64.60;;;;;;5052090;28;20032;-78
2023/08/18 09:48:39;;;;;;;11.00;6.38;;;28.60;62.30;;;;;;5053444;28;20111;-78
2023/08/18 09:51:12;;;;;;;14.05;7.13;;;28.60;62.50;;;;;;5053658;28;20029;-78
2023/08/18 09:53:49;;;;;;;13.50;7.18;;;28.60;61.90;;;;;;5053789;28;20017;-78
2023/08/18 09:56:24;;;;;;;11.75;6.43;;;28.60;61.40;;;;;;5051627;28;20519;-81
2023/08/18 09:59:03;;;;;;;11.70;6.88;;;28.60;62.30;;;;;;5054229;28;20373;-82
2023/08/18 10:01:33;;;;;;;14.75;8.23;;;28.70;62.20;;;;;;5054715;28;20032;-82
2023/08/18 10:03:59;;;;;;;9.07;7.18;;;28.70;62.40;;;;;;5055904;28;20025;-81
2023/08/18 10:06:25;;;;;;;18.77;6.93;;;28.80;62.40;;;;;;5053633;28;20040;-82
2023/08/18 10:08:53;;;;;;;13.80;6.65;;;28.80;62.60;;;;;;5053712;28;20037;-82
2023/08/18 10:11:19;;;;;;;9.52;6.55;;;28.90;62.50;;;;;;5053748;28;20029;-82
2023/08/18 10:13:47;;;;;;;10.98;5.93;;;29.10;62.40;;;;;;5053680;28;20036;-82
2023/08/18 10:16:14;;;;;;;14.88;7.40;;;29.20;62.40;;;;;;5054047;28;20029;-82
2023/08/18 10:18:39;;;;;;;10.30;6.97;;;29.20;61.00;;;;;;5054771;28;20045;-83
2023/08/18 10:21:05;;;;;;;14.87;6.60;;;29.30;61.30;;;;;;5053741;28;20044;-81
2023/08/18 10:23:31;;;;;;;14.23;6.63;;;29.30;60.90;;;;;;5054781;28;20025;-81
2023/08/18 10:25:57;;;;;;;11.67;6.83;;;29.30;60.80;;;;;;5055659;28;20031;-81
2023/08/18 10:28:28;;;;;;;10.63;6.68;;;29.30;61.60;;;;;;5054552;28;20021;-82
2023/08/18 10:31:00;;;;;;;11.45;7.47;;;29.40;60.40;;;;;;5055370;28;20486;-82
2023/08/18 10:33:30;;;;;;;11.93;7.85;;;29.50;60.70;;;;;;5055305;28;20037;-82
2023/08/18 10:35:57;;;;;;;9.57;6.63;;;29.50;60.50;;;;;;5056816;28;20071;-82
2023/08/18 10:38:28;;;;;;;11.05;7.03;;;29.60;60.40;;;;;;5039724;28;20040;-83
2023/08/18 10:40:54;;;;;;;9.70;6.82;;;29.60;60.10;;;;;;5054312;28;20033;-82
2023/08/18 10:43:20;;;;;;;8.63;7.13;;;29.80;60.80;;;;;;5056137;28;20483;-82
2023/08/18 10:46:01;;;;;;;15.65;7.43;;;30.00;60.60;;;;;;5053427;28;20106;-84
2023/08/18 10:48:34;;;;;;;15.88;12.55;;;30.20;61.00;;;;;;5053777;28;20024;-81
2023/08/18 10:51:00;;;;;;;20.67;13.52;;;30.30;59.80;;;;;;5056575;28;20064;-80
2023/08/18 10:53:33;;;;;;;11.60;7.40;;;30.30;59.50;;;;;;5058431;28;20051;-80
2023/08/18 10:56:00;;;;;;;9.75;7.60;;;30.40;59.00;;;;;;5043537;28;20033;-79
2023/08/18 10:58:26;;;;;;;14.10;7.15;;;30.40;58.90;;;;;;5055468;28;20076;-79
2023/08/18 11:00:52;;;;;;;10.65;8.70;;;30.50;59.70;;;;;;5053519;28;20511;-79
2023/08/18 11:03:18;;;;;;;;;;;30.60;59.60;;;;;;5055658;28;20048;-79
2023/08/18 11:05:45;;;;;;;12.10;7.72;;;30.70;58.70;;;;;;5052445;28;19909;-79
2023/08/18 11:08:11;;;;;;;10.90;8.38;;;30.60;57.70;;;;;;5052803;28;20036;-79
2023/08/18 11:10:39;;;;;;;9.07;8.07;;;30.60;57.30;;;;;;5052392;28;20491;-80
2023/08/18 11:13:06;;;;;;;14.40;7.90;;;30.60;57.70;;;;;;5054315;28;20040;-80
2023/08/18 11:15:32;;;;;;;10.82;7.57;;;30.60;57.50;;;;;;5053866;28;20031;-79
2023/08/18 11:17:58;;;;;;;13.07;8.27;;;30.70;57.80;;;;;;5053026;28;20044;-79
2023/08/18 11:20:23;;;;;;;12.48;8.40;;;30.70;58.50;;;;;;5053983;28;20479;-79
2023/08/18 11:22:51;;;;;;;13.98;8.48;;;31.00;58.90;;;;;;5052213;28;20033;-79
2023/08/18 11:25:19;;;;;;;12.77;7.45;;;31.10;57.40;;;;;;5051352;28;20376;-79
2023/08/18 11:27:45;;;;;;;11.60;7.45;;;31.20;57.20;;;;;;5053146;28;20572;-80
2023/08/18 11:30:13;;;;;;;13.40;7.50;;;31.20;56.90;;;;;;5055623;28;20096;-79
2023/08/18 11:32:40;;;;;;;9.85;8.45;;;31.30;57.30;;;;;;5055525;28;20126;-79
2023/08/18 11:35:07;;;;;;;12.43;8.70;;;31.40;58.00;;;;;;5054823;28;20081;-79
2023/08/18 11:37:41;;;;;;;16.23;8.30;;;31.60;56.50;;;;;;5053281;28;20511;-80
2023/08/18 11:40:10;;;;;;;11.98;7.30;;;31.70;55.70;;;;;;5053716;28;20116;-80
2023/08/18 11:42:41;;;;;;;14.60;8.13;;;31.80;56.60;;;;;;5053422;28;20029;-79
2023/08/18 11:45:15;;;;;;;9.20;7.45;;;31.80;55.60;;;;;;5055031;28;20021;-79
2023/08/18 11:47:41;;;;;;;11.38;7.97;;;31.80;55.30;;;;;;5054779;28;20099;-79
2023/08/18 11:50:08;;;;;;;14.52;8.18;;;31.90;55.70;;;;;;5054340;28;20535;-79
2023/08/18 11:52:44;;;;;;;12.13;7.43;;;32.10;56.90;;;;;;5054441;28;20056;-79
2023/08/18 11:55:11;;;;;;;10.35;7.78;;;32.30;55.90;;;;;;5054868;28;20063;-80
2023/08/18 11:57:40;;;;;;;12.52;8.10;;;32.30;55.80;;;;;;5054034;28;20027;-79
2023/08/18 12:00:13;;;;;;;12.13;7.63;;;32.40;55.90;;;;;;5054494;28;20052;-79
2023/08/18 12:02:44;;;;;;;8.55;6.95;;;32.60;55.50;;;;;;5058695;28;20062;-79
2023/08/18 12:05:23;;;;;;;8.05;7.13;;;32.70;55.00;;;;;;5058475;28;20024;-79
2023/08/18 12:07:53;;;;;;;8.65;7.00;;;32.90;54.80;;;;;;5052206;28;20036;-79
2023/08/18 12:10:20;;;;;;;12.07;8.30;;;32.90;54.30;;;;;;5057906;28;20081;-80
2023/08/18 12:12:56;;;;;;;14.75;7.43;;;32.90;53.60;;;;;;5057890;28;20443;-80
2023/08/18 12:15:26;;;;;;;12.18;7.60;;;33.00;54.30;;;;;;5057618;28;20029;-79
2023/08/18 12:17:55;;;;;;;10.60;8.18;;;33.10;54.30;;;;;;5057992;28;20120;-80
2023/08/18 12:20:23;;;;;;;11.23;6.53;;;33.20;54.50;;;;;;5057343;28;20066;-79
2023/08/18 12:22:50;;;;;;;9.25;7.22;;;33.40;54.30;;;;;;5055933;28;20032;-79
2023/08/18 12:25:17;;;;;;;9.13;6.85;;;33.50;53.90;;;;;;5057511;28;20025;-79
2023/08/18 12:27:47;;;;;;;10.05;6.70;;;33.70;52.90;;;;;;5057644;28;20029;-80
2023/08/18 12:30:14;;;;;;;12.45;7.57;;;33.70;52.00;;;;;;5057542;28;20025;-79
2023/08/18 12:32:41;;;;;;;13.25;7.60;;;33.60;52.30;;;;;;5038987;28;20100;-80
2023/08/18 12:35:07;;;;;;;9.45;7.90;;;33.60;51.70;;;;;;5057648;28;20028;-80
2023/08/18 12:37:33;;;;;;;;;;;33.70;52.20;;;;;;5057905;28;20033;-80
2023/08/18 12:39:59;;;;;;;10.45;6.82;;;33.60;52.40;;;;;;5057461;28;19909;-79
2023/08/18 12:42:25;;;;;;;8.85;6.38;;;33.70;52.60;;;;;;5055304;28;20033;-79